Flight Track Log - Related Links

Times and Time Zones

All times are in EDT time to prevent confusion due to time zone crossing. See the N566UA flight status page for this flight to view local times or setup timezone preferences in your user account.

Time Position Orientation Groundspeed Altitude Reporting Facility
EDT Latitude Longitude Course Direction KTS MPH feet Rate Location/Type
Wed 10:31:38 PM 39.7833 -104.6333 159° South 220 253 7,500  Level Denver TRACON
Wed 10:32:38 PM 39.7167 -104.6000 159° South 253 291 9,400 1,664 Climbing Denver TRACON
Wed 10:33:55 PM 39.6456 -104.5158 138° Southeast 309 356 11,300 1,554 Climbing Denver Center
Wed 10:34:57 PM 39.6428 -104.3922 92° East 344 396 13,000 1,854 Climbing Denver Center
Wed 10:35:58 PM 39.6414 -104.2814 91° East 362 417 15,100 2,390 Climbing Denver Center
Wed 10:37:00 PM 39.6381 -104.1122 91° East 380 437 17,900 2,177 Climbing Denver Center
Wed 10:38:02 PM 39.6142 -103.9744 103° East 394 453 19,600 1,805 Climbing Denver Center
Wed 10:39:03 PM 39.5931 -103.8544 103° East 404 465 21,600 2,274 Climbing Denver Center
Wed 10:40:06 PM 39.5850 -103.6675 93° East 398 458 24,300 2,081 Climbing Denver Center
Wed 10:41:07 PM 39.5850 -103.5142 90° East 425 489 25,900 1,463 Climbing Denver Center
Wed 10:42:09 PM 39.5883 -103.3544 88° East 443 510 27,300 1,306 Climbing Denver Center
Wed 10:43:11 PM 39.5906 -103.1900 89° East 456 525 28,600 1,403 Climbing Denver Center
Wed 10:44:13 PM 39.5950 -103.0239 88° East 461 531 30,200 1,317 Climbing Denver Center
Wed 10:45:14 PM 39.6014 -102.8569 87° East 465 535 31,300 1,122 Climbing Denver Center
Wed 10:46:16 PM 39.6075 -102.6872 87° East 472 543 32,500 927 Climbing Denver Center
Wed 10:47:17 PM 39.6161 -102.5342 86° East 477 549 33,200 1,024 Climbing Denver Center
Wed 10:48:19 PM 39.6297 -102.3097 85° East 490 564 34,600 1,113 Climbing Denver Center
Wed 10:49:21 PM 39.6394 -102.1431 86° East 486 559 35,500 774 Climbing Denver Center
Wed 10:50:23 PM 39.6492 -101.9450 86° East 492 566 36,200 537 Climbing Denver Center
Wed 10:51:24 PM 39.6572 -101.7714 86° East 504 580 36,600 341 Climbing Denver Center
Wed 10:52:26 PM 39.6744 -101.5961 83° East 512 589 36,900 194 Climbing Denver Center
Wed 10:53:28 PM 39.7050 -101.3953 79° East 510 587 37,000 49 Climbing Denver Center
Wed 10:54:29 PM 39.7353 -101.1933 79° East 512 589 37,000  Level Denver Center
Wed 10:55:31 PM 39.7617 -101.0197 79° East 514 592 37,000  Level Denver Center
Wed 10:56:32 PM 39.7925 -100.8186 79° East 510 587 37,000  Level Denver Center
Wed 10:57:46 PM 39.8181 -100.6447 79° East 512 589 37,000  Level Denver Center
Wed 10:58:48 PM 39.8525 -100.4097 79° East 519 597 37,000  Level Denver Center
Wed 10:59:49 PM 39.8761 -100.2439 79° East 519 597 37,000  Level Denver Center
Wed 11:01:03 PM 39.9022 -100.0597 79° East 518 596 37,000  Level Denver Center
Wed 11:02:04 PM 39.9467 -99.8044 77° East 519 597 37,000  Level Denver Center
Wed 11:03:06 PM 39.9864 -99.6258 74° East 516 594 37,000  Level Denver Center
Wed 11:04:07 PM 40.0272 -99.4478 73° East 515 593 37,000  Level Denver Center
Wed 11:05:09 PM 40.0672 -99.2692 74° East 516 594 37,000  Level Denver Center
Wed 11:06:10 PM 40.1081 -99.0892 73° East 518 596 37,000  Level Denver Center
Wed 11:07:02 PM 40.1408 -98.9489 73° East 516 594 37,000  Level Minneapolis Center
Wed 11:08:03 PM 40.1872 -98.7339 74° East 515 593 37,000  Level Minneapolis Center
Wed 11:09:04 PM 40.2258 -98.5575 74° East 510 587 37,000  Level Minneapolis Center
Wed 11:10:06 PM 40.2639 -98.3819 74° East 506 582 37,000  Level Minneapolis Center
Wed 11:11:19 PM 40.3019 -98.2042 74° East 508 585 37,000  Level Minneapolis Center
Wed 11:12:21 PM 40.3464 -97.9947 74° East 502 578 37,000  Level Minneapolis Center
Wed 11:13:22 PM 40.3836 -97.8208 74° East 500 575 37,000  Level Minneapolis Center
Wed 11:14:24 PM 40.4211 -97.6472 74° East 497 572 37,000  Level Minneapolis Center
Wed 11:15:25 PM 40.4561 -97.4739 75° East 495 570 37,000  Level Minneapolis Center
Wed 11:16:26 PM 40.4978 -97.2753 75° East 497 572 37,000  Level Minneapolis Center
Wed 11:17:28 PM 40.5347 -97.1006 74° East 497 572 37,000  Level Minneapolis Center
Wed 11:18:29 PM 40.5683 -96.9247 76° East 498 573 37,000  Level Minneapolis Center
Wed 11:19:42 PM 40.6050 -96.7475 75° East 502 578 37,000  Level Minneapolis Center
Wed 11:20:44 PM 40.6469 -96.5322 76° East 507 583 37,000  Level Minneapolis Center
Wed 11:21:45 PM 40.6761 -96.3875 75° East 509 586 37,000  Level Minneapolis Center
Wed 11:22:46 PM 40.7253 -96.1325 76° East 517 595 37,000 341 Level Minneapolis Center
Wed 11:23:48 PM 40.7608 -95.9503 75° East 518 596 37,700 878 Climbing Minneapolis Center
Wed 11:24:49 PM 40.7950 -95.7708 76° East 511 588 38,800 639 Climbing Minneapolis Center
Wed 11:25:50 PM 40.8275 -95.5956 76° East 502 578 39,000 98 Climbing Minneapolis Center
Wed 11:26:52 PM 40.8622 -95.4167 76° East 503 579 39,000  Level Minneapolis Center
Wed 11:27:53 PM 40.8953 -95.2414 76° East 499 574 39,000  Level Minneapolis Center
Wed 11:28:54 PM 40.9289 -95.0653 76° East 497 572 39,000  Level Minneapolis Center
Wed 11:29:55 PM 40.9603 -94.8900 77° East 494 568 39,000  Level Minneapolis Center
Wed 11:30:57 PM 40.9992 -94.6769 76° East 496 571 39,000  Level Minneapolis Center
Wed 11:31:58 PM 41.0244 -94.5322 77° East 496 571 39,000  Level Minneapolis Center
Wed 11:32:59 PM 41.0611 -94.3183 77° East 498 573 39,000  Level Minneapolis Center
Wed 11:34:00 PM 41.0869 -94.1764 76° East 499 574 39,000  Level Minneapolis Center
Wed 11:35:02 PM 41.1247 -93.9611 77° East 501 577 39,000  Level Minneapolis Center
Wed 11:36:03 PM 41.1558 -93.7811 77° East 502 578 39,000  Level Minneapolis Center
Wed 11:37:04 PM 41.1867 -93.6000 77° East 503 579 39,000  Level Minneapolis Center
Wed 11:38:05 PM 41.2189 -93.4150 77° East 510 587 39,000  Level Minneapolis Center
Wed 11:39:18 PM 41.2481 -93.2303 78° East 513 590 39,000  Level Minneapolis Center
Wed 11:40:20 PM 41.2853 -93.0111 77° East 512 589 39,000  Level Minneapolis Center
Wed 11:41:08 PM 41.3086 -92.8636 78° East 509 586 39,000  Level Chicago Center
Wed 11:42:09 PM 41.3450 -92.6439 77° East 508 585 39,000  Level Chicago Center
Wed 11:43:10 PM 41.3736 -92.4603 78° East 508 585 39,000  Level Chicago Center
Wed 11:44:11 PM 41.4028 -92.2769 78° East 506 582 39,000  Level Chicago Center
Wed 11:45:11 PM 41.4306 -92.0981 78° East 501 577 39,000  Level Chicago Center
Wed 11:46:12 PM 41.4578 -91.9192 78° East 501 577 39,000  Level Chicago Center
Wed 11:47:13 PM 41.4856 -91.7408 78° East 499 574 39,000  Level Chicago Center
Wed 11:48:14 PM 41.5119 -91.5617 79° East 498 573 39,000  Level Chicago Center
Wed 11:49:15 PM 41.5397 -91.3828 78° East 499 574 39,000  Level Chicago Center
Wed 11:50:16 PM 41.5658 -91.2022 79° East 502 578 39,000  Level Chicago Center
Wed 11:51:16 PM 41.5969 -90.9869 79° East 501 577 39,000  Level Chicago Center
Wed 11:52:17 PM 41.6239 -90.8072 79° East 499 574 39,000  Level Chicago Center
Wed 11:53:18 PM 41.6494 -90.6278 79° East 499 574 39,000  Level Chicago Center
Wed 11:54:19 PM 41.6758 -90.4372 79° East 500 575 39,000  Level Chicago Center
Wed 11:55:20 PM 41.7008 -90.2564 79° East 495 570 39,000  Level Chicago Center
Wed 11:56:20 PM 41.7269 -90.0725 79° East 500 575 39,000  Level Chicago Center
Wed 11:57:21 PM 41.7503 -89.8958 80° East 485 558 39,000  Level Chicago Center
Wed 11:58:22 PM 41.7736 -89.7158 80° East 487 560 39,000  Level Chicago Center
Wed 11:59:23 PM 41.7969 -89.5436 80° East 484 557 39,000  Level Chicago Center
Thu 12:00:24 AM 41.8194 -89.3661 80° East 485 558 39,000  Level Chicago Center
Thu 12:01:24 AM 41.8419 -89.1914 80° East 476 548 39,000  Level Chicago Center
Thu 12:02:25 AM 41.8625 -89.0172 81° East 476 548 39,000  Level Chicago Center
Thu 12:03:26 AM 41.8847 -88.8433 80° East 477 549 39,000  Level Chicago Center
Thu 12:04:26 AM 41.9072 -88.6675 80° East 479 551 39,000  Level Chicago Center
Thu 12:05:27 AM 41.9278 -88.4914 81° East 478 550 39,000  Level Chicago Center
Thu 12:06:28 AM 41.9497 -88.3136 81° East 482 555 39,000  Level Chicago Center
Thu 12:07:29 AM 41.9744 -88.1014 81° East 479 551 39,000  Level Chicago Center
Thu 12:08:29 AM 41.9958 -87.9253 81° East 478 550 39,000  Level Chicago Center
Thu 12:09:30 AM 42.0158 -87.7481 81° East 479 551 39,000  Level Chicago Center
Thu 12:10:30 AM 42.0358 -87.5717 81° East 478 550 39,000  Level Chicago Center
Thu 12:11:31 AM 42.0544 -87.3967 82° East 475 547 39,000  Level Chicago Center
Thu 12:12:31 AM 42.0747 -87.2208 81° East 478 550 39,000  Level Chicago Center
Thu 12:13:32 AM 42.0936 -87.0458 82° East 475 547 39,000  Level Chicago Center
Thu 12:14:33 AM 42.1117 -86.8689 82° East 477 549 39,000  Level Chicago Center
Thu 12:15:33 AM 42.1322 -86.6828 81° East 476 548 39,000  Level Chicago Center
Thu 12:16:34 AM 42.1481 -86.5350 82° East 479 551 39,000  Level Chicago Center
Thu 12:17:34 AM 42.1656 -86.3583 82° East 478 550 39,000  Level Chicago Center
Thu 12:18:35 AM 42.1831 -86.1833 82° East 473 544 39,000  Level Chicago Center
Thu 12:19:35 AM 42.2014 -86.0044 82° East 479 551 39,000  Level Chicago Center
Thu 12:20:36 AM 42.2200 -85.8117 83° East 480 552 39,000  Level Chicago Center
Thu 12:21:36 AM 42.2375 -85.6325 82° East 483 556 39,000  Level Chicago Center
Thu 12:22:37 AM 42.2544 -85.4511 83° East 488 562 39,000  Level Chicago Center
Thu 12:23:37 AM 42.2725 -85.2703 82° East 489 563 39,000  Level Chicago Center
Thu 12:24:38 AM 42.2892 -85.0881 83° East 491 565 39,000 -352 Level Chicago Center
Thu 12:26:00 AM 42.2979 -84.8448 83° East  Level FlightAware Approximate
Thu 12:33:00 AM 42.4060 -83.6073 83° East  Level FlightAware Approximate
Thu 12:34:00 AM 42.4203 -83.4301 84° East  Level FlightAware Approximate
Thu 12:35:00 AM 42.4344 -83.2529 84° East  Level FlightAware Approximate
Thu 12:36:00 AM 42.4476 -83.0755 84° East  Level FlightAware Approximate
Thu 12:37:00 AM 42.4605 -82.8981 84° East  Level FlightAware Approximate
Thu 12:38:00 AM 42.4731 -82.7206 84° East  Level FlightAware Approximate
Thu 12:39:00 AM 42.4855 -82.5430 85° East  Level FlightAware Approximate
Thu 12:40:00 AM 42.4976 -82.3653 85° East  Level FlightAware Approximate
Thu 12:41:00 AM 42.5094 -82.1876 85° East  Level FlightAware Approximate
Thu 12:42:00 AM 42.5209 -82.0098 85° East  Level FlightAware Approximate
Thu 12:43:00 AM 42.5322 -81.8319 85° East  Level FlightAware Approximate
Thu 12:44:00 AM 42.5432 -81.6540 85° East  Level FlightAware Approximate
Thu 12:45:00 AM 42.5539 -81.4760 85° East  Level FlightAware Approximate
Thu 12:46:00 AM 42.5644 -81.2980 85° East  Level FlightAware Approximate
Thu 12:47:00 AM 42.5745 -81.1198 86° East  Level FlightAware Approximate
Thu 12:48:00 AM 42.5844 -80.9417 86° East  Level FlightAware Approximate
Thu 12:49:00 AM 42.5940 -80.7635 86° East  Level FlightAware Approximate
Thu 12:50:00 AM 42.6029 -80.5851 87° East  Level FlightAware Approximate
Thu 12:51:00 AM 42.6107 -80.4067 87° East  Level FlightAware Approximate
Thu 12:52:00 AM 42.6181 -80.2282 87° East  Level FlightAware Approximate
Thu 12:53:00 AM 42.6254 -80.0497 87° East  Level FlightAware Approximate
Thu 12:54:00 AM 42.6323 -79.8711 87° East  Level FlightAware Approximate
Thu 12:55:00 AM 42.6390 -79.6925 87° East  Level FlightAware Approximate
Thu 12:56:00 AM 42.6453 -79.5139 87° East  Level FlightAware Approximate
Thu 12:57:00 AM 42.6515 -79.3352 87° East  Level FlightAware Approximate
Thu 12:58:00 AM 42.6573 -79.1565 87° East  Level FlightAware Approximate
Thu 12:59:00 AM 42.6628 -78.9778 88° East  Level FlightAware Approximate
Thu 01:00:00 AM 42.6681 -78.7990 88° East  Level FlightAware Approximate
Thu 01:01:00 AM 42.6731 -78.6202 88° East  Level FlightAware Approximate
Thu 01:02:00 AM 42.6778 -78.4414 88° East  Level FlightAware Approximate
Thu 01:03:00 AM 42.6822 -78.2625 88° East  Level FlightAware Approximate
Thu 01:04:00 AM 42.6886 -78.0837 87° East  Level FlightAware Approximate
Thu 01:05:00 AM 42.6953 -77.9050 87° East  Level FlightAware Approximate
Thu 01:06:00 AM 42.7018 -77.7262 87° East  Level FlightAware Approximate
Thu 01:07:00 AM 42.7081 -77.5474 87° East  Level FlightAware Approximate
Thu 01:08:00 AM 42.7140 -77.3685 87° East  Level FlightAware Approximate
Thu 01:09:00 AM 42.7197 -77.1896 87° East  Level FlightAware Approximate
Thu 01:10:00 AM 42.7251 -77.0107 88° East  Level FlightAware Approximate
Thu 01:11:00 AM 42.7302 -76.8317 88° East  Level FlightAware Approximate
Thu 01:12:00 AM 42.7344 -76.6527 89° East  Level FlightAware Approximate
Thu 01:13:00 AM 42.7372 -76.4736 89° East  Level FlightAware Approximate
Thu 01:14:00 AM 42.7398 -76.2945 89° East  Level FlightAware Approximate
Thu 01:15:00 AM 42.7421 -76.1154 89° East  Level FlightAware Approximate
Thu 01:16:00 AM 42.7440 -75.9363 89° East  Level FlightAware Approximate
Thu 01:17:00 AM 42.7458 -75.7572 89° East  Level FlightAware Approximate
Thu 01:18:00 AM 42.7472 -75.5780 89° East  Level FlightAware Approximate
Thu 01:19:00 AM 42.7483 -75.3989 89° East  Level FlightAware Approximate
Thu 01:20:00 AM 42.7492 -75.2197 90° East  Level FlightAware Approximate
Thu 01:21:00 AM 42.7498 -75.0406 90° East  Level FlightAware Approximate
Thu 01:22:00 AM 42.7501 -74.8614 90° East  Level FlightAware Approximate
Thu 01:23:00 AM 42.7501 -74.6822 90° East  Level FlightAware Approximate
Thu 01:24:00 AM 42.7488 -74.5031 92° East  Level FlightAware Approximate
Thu 01:25:00 AM 42.7441 -74.3241 92° East  Level FlightAware Approximate
Thu 01:26:00 AM 42.7391 -74.1451 92° East  Level FlightAware Approximate
Thu 01:27:00 AM 42.7338 -73.9661 92° East  Level FlightAware Approximate
Thu 01:28:00 AM 42.7321 -73.7871 98° East  Level FlightAware Approximate
Thu 01:29:00 AM 42.7144 -73.6096 98° East  Level FlightAware Approximate
Thu 01:30:00 AM 42.6962 -73.4323 98° East  Level FlightAware Approximate
Thu 01:31:00 AM 42.6766 -73.2553 99° East  Level FlightAware Approximate
Thu 01:32:00 AM 42.6667 -73.0774 90° East  Level FlightAware Approximate
Thu 01:33:00 AM 42.6373 -72.9034 105° East  Level FlightAware Approximate
Thu 01:34:00 AM 42.6234 -72.7263 98° East  Level FlightAware Approximate
Thu 01:35:00 AM 42.6037 -72.5495 99° East  Level FlightAware Approximate
Thu 01:36:00 AM 42.5756 -72.3752 100° East  Level FlightAware Approximate
Thu 01:37:00 AM 42.5522 -72.1994 100° East  Level FlightAware Approximate
Thu 01:37:30 AM 42.5333 -71.9500 90° East 348 400 13,000  Level KA90
Thu 01:38:00 AM 42.5333 -72.0241 90° East  Level FlightAware Approximate
Thu 01:38:42 AM 42.5167 -71.7833 98° East 338 389 11,400  Level KA90
Thu 01:39:00 AM 42.5155 -71.8475 99° East  Level FlightAware Approximate
Thu 01:39:42 AM 42.5167 -71.6667 90° East 312 359 11,000  Level KA90
Thu 01:40:00 AM 42.5000 -71.6707 90° East  Level FlightAware Approximate
Thu 01:40:42 AM 42.5000 -71.5500 101° East 303 349 10,600  Level KA90
Thu 01:41:00 AM 42.4849 -71.4943 101° East  Level FlightAware Approximate
Thu 01:41:42 AM 42.4833 -71.4500 103° East 295 339 9,800  Level KA90
Thu 01:42:00 AM 42.4667 -71.3191 90° East  Level FlightAware Approximate
Thu 01:42:42 AM 42.4833 -71.3333 90° East 293 337 9,000  Level KA90
Thu 01:43:48 AM 42.4667 -71.2167 101° East 285 328 8,300 -714 Descending KA90
Thu 01:44:48 AM 42.4667 -71.1167 90° East 283 326 7,500 -650 Descending KA90
Thu 01:45:48 AM 42.4500 -71.0167 103° East 236 272 7,000 -650 Descending KA90
Thu 01:46:48 AM 42.4167 -70.9500 124° Southeast 236 272 6,200 -750 Descending KA90
Thu 01:47:48 AM 42.3667 -70.8833 135° Southeast 230 265 5,500 -800 Descending KA90
Thu 01:48:48 AM 42.3333 -70.8167 124° Southeast 215 247 4,600 -800 Descending KA90
Thu 01:49:48 AM 42.3000 -70.7667 132° Southeast 187 215 3,900 -850 Descending KA90
Thu 01:50:48 AM 42.2667 -70.8167 228° Southwest 197 227 2,900 -800 Descending KA90
Thu 01:51:48 AM 42.2667 -70.8833 270° West 172 198 2,300 -650 Descending KA90
Thu 01:52:48 AM 42.3000 -70.9167 324° Northwest 134 154 1,600 -700 Descending KA90
Thu 01:53:48 AM 42.3167 -70.9500 304° West 124 143 900 -650 Descending KA90
Thu 01:54:48 AM 42.3500 -70.9833 324° Northwest 121 139 300 -600 Descending KA90
Thu 01:56:00 AM 42.3500 -71.0000 North  Level FlightAware Approximate
Thu 02:03:00 AM 42.3630 -71.0064 North  Level Estimated
Thu 02:04:00 AM 42.3630 -71.0064 North  Level Estimated
Thu 02:05:00 AM 42.3630 -71.0064 North  Level Estimated
Thu 02:06:00 AM 42.3630 -71.0064 North  Level Estimated
Thu 02:07:00 AM 42.3630 -71.0064 North  Level Estimated

Login

Don't have an account? Register now (free) for customized features, flight alerts, and more!